createdAt,value
2023-01-29T00:02:33.233Z,79.41
2023-01-29T00:05:27.417Z,80.68
2023-01-29T00:08:13.484Z,80.84
2023-01-29T00:11:06.807Z,80.59
2023-01-29T00:13:53.330Z,79.43
2023-01-29T00:16:38.587Z,79.93
2023-01-29T00:19:23.300Z,79.83
2023-01-29T00:22:08.199Z,80.13
2023-01-29T00:24:53.494Z,80.15
2023-01-29T00:27:38.340Z,80.82
2023-01-29T00:30:23.732Z,79.91
2023-01-29T00:33:08.761Z,80.48
2023-01-29T00:35:54.000Z,80.60
2023-01-29T00:38:39.024Z,80.54
2023-01-29T00:41:46.418Z,80.43
2023-01-29T00:44:50.156Z,81.21
2023-01-29T00:47:35.504Z,81.91
2023-01-29T00:50:22.067Z,80.75
2023-01-29T00:53:07.261Z,81.30
2023-01-29T00:55:52.136Z,81.48
2023-01-29T00:58:36.959Z,80.77
2023-01-29T01:01:42.646Z,80.34
2023-01-29T01:04:27.632Z,80.19
2023-01-29T01:10:16.124Z,80.91
2023-01-29T01:13:07.669Z,80.80
2023-01-29T01:15:52.836Z,80.63
2023-01-29T01:18:38.541Z,80.38
2023-01-29T01:21:23.803Z,80.56
2023-01-29T01:24:08.694Z,81.23
2023-01-29T01:26:53.834Z,80.89
2023-01-29T01:29:38.966Z,80.36
2023-01-29T01:32:24.291Z,80.04
2023-01-29T01:35:11.027Z,80.37
2023-01-29T01:37:56.363Z,81.02
2023-01-29T01:40:45.675Z,80.30
2023-01-29T01:43:48.690Z,81.52
2023-01-29T01:46:37.740Z,80.67
2023-01-29T01:49:24.307Z,80.62
2023-01-29T01:52:10.707Z,80.74
2023-01-29T01:54:56.118Z,81.33
2023-01-29T01:57:43.834Z,80.67
2023-01-29T02:00:28.791Z,81.15
2023-01-29T02:03:32.633Z,81.28
2023-01-29T02:06:36.581Z,81.24
2023-01-29T02:09:35.823Z,81.19
2023-01-29T02:12:21.482Z,81.47
2023-01-29T02:15:07.622Z,80.86
2023-01-29T02:17:52.727Z,81.35
2023-01-29T02:20:41.709Z,81.34
2023-01-29T02:23:57.699Z,80.95
2023-01-29T02:27:09.700Z,81.31
2023-01-29T02:30:08.320Z,81.20
2023-01-29T02:33:07.370Z,80.99
2023-01-29T02:35:55.625Z,81.39
2023-01-29T02:39:01.581Z,81.53
2023-01-29T02:41:55.295Z,81.47
2023-01-29T02:44:51.925Z,81.28
2023-01-29T02:47:39.943Z,81.66
2023-01-29T02:50:42.891Z,81.48
2023-01-29T02:53:38.448Z,81.60
2023-01-29T02:56:40.243Z,81.33
2023-01-29T02:59:33.461Z,81.30
2023-01-29T03:02:59.940Z,81.50
2023-01-29T03:06:08.801Z,81.50
2023-01-29T03:08:58.983Z,81.39
2023-01-29T03:11:51.482Z,81.74
2023-01-29T03:14:58.362Z,81.21
2023-01-29T03:17:56.507Z,81.69
2023-01-29T03:20:49.751Z,82.34
2023-01-29T03:23:55.611Z,82.59
2023-01-29T03:27:01.372Z,82.77
2023-01-29T03:30:07.624Z,83.30
2023-01-29T03:32:54.500Z,83.21
2023-01-29T03:35:48.309Z,82.85
2023-01-29T03:38:33.855Z,83.04
2023-01-29T03:41:54.809Z,83.03
2023-01-29T03:45:05.585Z,82.76
2023-01-29T03:48:35.452Z,83.08
2023-01-29T03:51:29.258Z,83.55
2023-01-29T03:54:40.739Z,83.97
2023-01-29T03:57:43.007Z,84.12
2023-01-29T04:00:54.312Z,84.41
2023-01-29T04:03:53.840Z,84.44
2023-01-29T04:06:43.845Z,84.79
2023-01-29T04:09:33.936Z,84.71
2023-01-29T04:12:24.855Z,85.17
2023-01-29T04:15:17.012Z,85.29
2023-01-29T04:18:02.590Z,85.67
2023-01-29T04:20:48.024Z,86.05
2023-01-29T04:23:33.089Z,86.08
2023-01-29T04:26:21.921Z,85.71
2023-01-29T04:29:23.685Z,85.16
2023-01-29T04:32:22.747Z,85.31
2023-01-29T04:35:18.081Z,85.14
2023-01-29T04:38:17.494Z,84.61
2023-01-29T04:41:07.682Z,85.14
2023-01-29T04:44:05.587Z,83.95
2023-01-29T04:47:16.138Z,84.11
2023-01-29T04:50:21.014Z,83.97
2023-01-29T04:53:12.354Z,83.42
2023-01-29T04:56:10.550Z,83.51
2023-01-29T04:59:02.432Z,83.30
2023-01-29T05:01:48.942Z,83.54
2023-01-29T05:04:35.498Z,83.50
2023-01-29T05:07:22.361Z,83.28
2023-01-29T05:10:10.108Z,83.04
2023-01-29T05:13:02.715Z,83.14
2023-01-29T05:15:54.048Z,83.40
2023-01-29T05:18:39.926Z,83.13
2023-01-29T05:21:26.786Z,82.78
2023-01-29T05:24:15.965Z,83.04
2023-01-29T05:27:20.014Z,82.98
2023-01-29T05:30:06.252Z,83.21
2023-01-29T05:32:51.760Z,82.30
2023-01-29T05:35:36.714Z,83.07
2023-01-29T05:38:23.173Z,82.30
2023-01-29T05:41:08.195Z,82.27
2023-01-29T05:43:53.840Z,82.67
2023-01-29T05:46:39.286Z,82.34
2023-01-29T05:49:24.710Z,81.88
2023-01-29T05:52:09.442Z,82.29
2023-01-29T05:54:55.305Z,82.05
2023-01-29T05:57:41.577Z,81.86
2023-01-29T06:00:26.594Z,82.28
2023-01-29T06:03:11.636Z,81.96
2023-01-29T06:05:56.839Z,81.67
2023-01-29T06:08:42.071Z,81.63
2023-01-29T06:11:27.239Z,81.89
2023-01-29T06:14:12.873Z,82.66
2023-01-29T06:16:57.956Z,81.46
2023-01-29T06:19:43.084Z,81.90
2023-01-29T06:22:28.139Z,81.87
2023-01-29T06:25:13.601Z,81.31
2023-01-29T06:27:59.620Z,80.72
2023-01-29T06:30:45.911Z,81.13
2023-01-29T06:33:31.007Z,81.35
2023-01-29T06:36:16.563Z,81.04
2023-01-29T06:39:01.701Z,80.87
2023-01-29T06:41:46.946Z,81.91
2023-01-29T06:44:31.724Z,80.72
2023-01-29T06:47:16.851Z,80.87
2023-01-29T06:50:02.206Z,81.81
2023-01-29T06:52:47.304Z,80.51
2023-01-29T06:55:32.155Z,81.05
2023-01-29T06:58:17.199Z,81.42
2023-01-29T07:01:06.748Z,80.63
2023-01-29T07:03:51.902Z,80.68
2023-01-29T07:06:36.872Z,80.93
2023-01-29T07:09:22.024Z,80.63
2023-01-29T07:12:07.455Z,80.59
2023-01-29T07:14:52.319Z,80.32
2023-01-29T07:17:37.174Z,80.52
2023-01-29T07:20:22.002Z,80.56
2023-01-29T07:23:10.618Z,80.93
2023-01-29T07:25:55.804Z,80.20
2023-01-29T07:28:41.005Z,80.88
2023-01-29T07:31:26.464Z,80.60
2023-01-29T07:34:11.311Z,80.61
2023-01-29T07:36:57.089Z,80.33
2023-01-29T07:39:41.828Z,80.15
2023-01-29T07:42:27.250Z,79.81
2023-01-29T07:45:13.596Z,79.76
2023-01-29T07:47:58.595Z,79.89
2023-01-29T07:50:43.993Z,79.67
2023-01-29T07:53:29.613Z,79.42
2023-01-29T07:56:14.945Z,78.97
2023-01-29T07:59:00.148Z,79.69
2023-01-29T08:01:46.044Z,79.62
2023-01-29T08:04:32.031Z,79.51
2023-01-29T08:07:16.783Z,79.56
2023-01-29T08:10:02.080Z,79.51
2023-01-29T08:12:46.714Z,79.78
2023-01-29T08:15:32.584Z,79.40
2023-01-29T08:18:17.536Z,79.51
2023-01-29T08:21:02.823Z,79.38
2023-01-29T08:23:47.951Z,79.32
2023-01-29T08:26:33.294Z,79.11
2023-01-29T08:29:18.306Z,78.58
2023-01-29T08:32:03.818Z,78.86
2023-01-29T08:34:49.045Z,78.71
2023-01-29T08:37:36.331Z,78.83
2023-01-29T08:40:21.856Z,78.77
2023-01-29T08:43:09.495Z,78.38
2023-01-29T08:45:55.184Z,79.55
2023-01-29T08:48:40.123Z,78.17
2023-01-29T08:51:26.262Z,77.42
2023-01-29T08:54:11.027Z,78.23
2023-01-29T08:56:56.411Z,78.46
2023-01-29T08:59:41.218Z,77.78
2023-01-29T09:02:26.372Z,78.10
2023-01-29T09:05:11.626Z,78.41
2023-01-29T09:08:00.097Z,78.31
2023-01-29T09:10:45.427Z,78.21
2023-01-29T09:13:30.627Z,79.13
2023-01-29T09:16:15.549Z,79.04
2023-01-29T09:19:01.021Z,79.85
2023-01-29T09:21:46.134Z,80.00
2023-01-29T09:24:32.524Z,80.80
2023-01-29T09:27:17.843Z,81.07
2023-01-29T09:30:04.714Z,81.30
2023-01-29T09:32:53.748Z,81.57
2023-01-29T09:35:43.578Z,81.83
2023-01-29T09:38:28.469Z,82.08
2023-01-29T09:41:30.038Z,81.96
2023-01-29T09:44:29.097Z,82.15
2023-01-29T09:47:17.331Z,81.97
2023-01-29T09:50:18.398Z,82.17
2023-01-29T09:53:30.524Z,81.88
2023-01-29T09:56:21.461Z,81.65
2023-01-29T09:59:12.775Z,82.40
2023-01-29T10:02:29.841Z,81.94
2023-01-29T10:05:30.603Z,82.11
2023-01-29T10:08:33.242Z,81.95
2023-01-29T10:11:58.140Z,81.71
2023-01-29T10:14:49.578Z,81.25
2023-01-29T10:17:43.523Z,81.56
2023-01-29T10:20:37.072Z,82.19
2023-01-29T10:23:27.691Z,81.36
2023-01-29T10:26:13.423Z,82.04
2023-01-29T10:29:01.234Z,81.01
2023-01-29T10:31:50.966Z,80.54
2023-01-29T10:35:00.140Z,81.07
2023-01-29T10:37:45.682Z,80.85
2023-01-29T10:40:49.708Z,80.25
2023-01-29T10:43:54.363Z,80.41
2023-01-29T10:47:13.757Z,80.42
2023-01-29T10:50:21.846Z,79.84
2023-01-29T10:53:28.786Z,79.64
2023-01-29T10:56:45.259Z,79.27
2023-01-29T10:59:39.280Z,79.40
2023-01-29T11:02:24.539Z,79.58
2023-01-29T11:05:38.899Z,79.37
2023-01-29T11:08:38.537Z,79.31
2023-01-29T11:11:56.672Z,78.94
2023-01-29T11:14:51.592Z,79.44
2023-01-29T11:17:38.545Z,79.31
2023-01-29T11:20:28.577Z,79.77
2023-01-29T11:23:26.865Z,79.67
2023-01-29T11:26:13.754Z,79.77
2023-01-29T11:28:59.235Z,79.63
2023-01-29T11:31:44.141Z,79.05
2023-01-29T11:34:31.472Z,79.75
2023-01-29T11:37:16.863Z,79.20
2023-01-29T11:40:02.594Z,79.02
2023-01-29T11:42:50.783Z,78.55
2023-01-29T11:45:39.636Z,78.65
2023-01-29T11:48:37.956Z,78.05
2023-01-29T11:51:29.050Z,78.61
2023-01-29T11:54:20.040Z,79.09
2023-01-29T11:57:05.630Z,79.05
2023-01-29T11:59:52.496Z,78.29
2023-01-29T12:02:43.538Z,78.88
2023-01-29T12:05:28.717Z,78.27
2023-01-29T12:08:18.608Z,77.53
2023-01-29T12:11:24.900Z,78.14
2023-01-29T12:14:33.249Z,78.77
2023-01-29T12:17:26.608Z,78.24
2023-01-29T12:20:17.300Z,77.90
2023-01-29T12:23:21.455Z,77.41
2023-01-29T12:26:08.867Z,78.10
2023-01-29T12:29:21.907Z,78.26
2023-01-29T12:32:45.026Z,77.35
2023-01-29T12:35:40.261Z,77.72
2023-01-29T12:38:26.726Z,77.87
2023-01-29T12:41:29.661Z,77.89
2023-01-29T12:44:23.364Z,77.50
2023-01-29T12:47:17.016Z,77.94
2023-01-29T12:50:09.546Z,77.81
2023-01-29T12:53:20.673Z,77.50
2023-01-29T12:56:14.336Z,77.43
2023-01-29T12:59:05.424Z,77.42
2023-01-29T13:01:56.568Z,78.11
2023-01-29T13:04:53.840Z,77.51
2023-01-29T13:07:48.268Z,77.25
2023-01-29T13:10:42.850Z,77.26
2023-01-29T13:13:36.621Z,76.86
2023-01-29T13:16:30.722Z,77.34
2023-01-29T13:19:35.947Z,77.46
2023-01-29T13:22:32.818Z,77.44
2023-01-29T13:25:22.503Z,77.91
2023-01-29T13:28:17.863Z,77.62
2023-01-29T13:31:34.739Z,77.05
2023-01-29T13:34:32.767Z,76.81
2023-01-29T13:37:30.113Z,77.01
2023-01-29T13:40:20.773Z,76.60
2023-01-29T13:43:09.481Z,77.25
2023-01-29T13:45:54.927Z,76.71
2023-01-29T13:48:48.498Z,76.53
2023-01-29T13:51:37.853Z,76.25
2023-01-29T13:54:25.943Z,75.77
2023-01-29T13:57:55.408Z,76.23
2023-01-29T14:00:43.648Z,76.36
2023-01-29T14:03:35.925Z,76.14
2023-01-29T14:06:43.359Z,76.84
2023-01-29T14:09:37.493Z,76.82
2023-01-29T14:12:26.139Z,76.54
2023-01-29T14:15:22.602Z,76.46
2023-01-29T14:18:20.227Z,76.70
2023-01-29T14:21:15.246Z,77.72
2023-01-29T14:24:16.670Z,77.21
2023-01-29T14:27:03.898Z,77.17
2023-01-29T14:33:03.042Z,76.95
2023-01-29T14:35:56.483Z,76.94
2023-01-29T14:38:48.535Z,76.83
2023-01-29T14:42:21.747Z,77.32
2023-01-29T14:45:32.796Z,77.16
2023-01-29T14:48:42.318Z,77.54
2023-01-29T14:51:40.612Z,77.60
2023-01-29T14:54:30.954Z,78.23
2023-01-29T14:57:21.303Z,78.64
2023-01-29T15:00:28.542Z,79.22
2023-01-29T15:03:20.129Z,80.04
2023-01-29T15:06:08.196Z,79.79
2023-01-29T15:09:05.501Z,79.35
2023-01-29T15:12:16.836Z,80.10
2023-01-29T15:15:18.295Z,79.73
2023-01-29T15:18:09.093Z,80.31
2023-01-29T15:21:12.076Z,79.75
2023-01-29T15:24:07.667Z,80.34
2023-01-29T15:26:54.473Z,79.77
2023-01-29T15:29:41.511Z,80.16
2023-01-29T15:32:31.272Z,80.53
2023-01-29T15:35:28.787Z,80.21
2023-01-29T15:38:19.257Z,81.32
2023-01-29T15:41:16.124Z,80.95
2023-01-29T15:44:02.960Z,81.11
2023-01-29T15:46:56.509Z,81.72
2023-01-29T15:49:43.190Z,81.79
2023-01-29T15:52:36.119Z,81.86
2023-01-29T15:55:23.680Z,81.81
2023-01-29T15:58:17.212Z,81.40
2023-01-29T16:01:03.492Z,81.50
2023-01-29T16:03:50.484Z,82.10
2023-01-29T16:06:39.699Z,82.35
2023-01-29T16:09:26.528Z,81.95
2023-01-29T16:12:12.998Z,82.44
2023-01-29T16:15:02.694Z,82.71
2023-01-29T16:17:47.714Z,82.78
2023-01-29T16:20:50.124Z,82.22
2023-01-29T16:23:43.697Z,82.57
2023-01-29T16:26:33.102Z,83.25
2023-01-29T16:29:25.547Z,83.52
2023-01-29T16:32:13.650Z,84.51
2023-01-29T16:35:00.040Z,84.83
2023-01-29T16:37:50.580Z,85.67
2023-01-29T16:40:38.767Z,86.10
2023-01-29T16:43:45.943Z,86.41
2023-01-29T16:46:51.115Z,86.70
2023-01-29T16:49:39.288Z,86.99
2023-01-29T16:52:34.274Z,87.58
2023-01-29T16:55:21.853Z,87.07
2023-01-29T16:58:15.879Z,86.87
2023-01-29T17:01:11.124Z,87.38
2023-01-29T17:04:08.472Z,87.30
2023-01-29T17:06:59.436Z,87.58
2023-01-29T17:09:46.300Z,87.45
2023-01-29T17:12:33.154Z,86.94
2023-01-29T17:15:34.303Z,86.78
2023-01-29T17:18:23.271Z,86.91
2023-01-29T17:21:10.082Z,86.37
2023-01-29T17:23:55.326Z,86.28
2023-01-29T17:26:40.608Z,86.31
2023-01-29T17:29:30.251Z,86.61
2023-01-29T17:32:19.146Z,86.43
2023-01-29T17:35:06.383Z,85.76
2023-01-29T17:37:52.551Z,85.28
2023-01-29T17:40:47.105Z,85.44
2023-01-29T17:43:32.075Z,85.41
2023-01-29T17:46:20.986Z,85.35
2023-01-29T17:49:27.974Z,85.03
2023-01-29T17:52:15.115Z,84.47
2023-01-29T17:55:00.156Z,84.98
2023-01-29T17:57:45.886Z,85.45
2023-01-29T18:00:34.763Z,85.34
2023-01-29T18:03:20.417Z,85.22
2023-01-29T18:06:14.694Z,85.38
2023-01-29T18:09:00.380Z,86.12
2023-01-29T18:11:47.528Z,85.90
2023-01-29T18:14:34.983Z,86.21
2023-01-29T18:17:24.959Z,85.54
2023-01-29T18:20:21.616Z,86.33
2023-01-29T18:23:08.024Z,85.79
2023-01-29T18:25:57.512Z,86.33
2023-01-29T18:28:44.690Z,85.99
2023-01-29T18:31:29.833Z,86.17
2023-01-29T18:34:15.003Z,85.96
2023-01-29T18:37:01.007Z,85.37
2023-01-29T18:39:47.501Z,85.94
2023-01-29T18:42:36.205Z,85.51
2023-01-29T18:45:21.932Z,86.16
2023-01-29T18:48:07.783Z,84.92
2023-01-29T18:50:54.784Z,85.00
2023-01-29T18:53:47.636Z,85.12
2023-01-29T18:56:32.721Z,84.75
2023-01-29T18:59:25.105Z,85.01
2023-01-29T19:02:15.654Z,85.25
2023-01-29T19:05:00.848Z,84.96
2023-01-29T19:07:46.840Z,84.74
2023-01-29T19:10:35.285Z,84.81
2023-01-29T19:13:21.693Z,84.77
2023-01-29T19:16:14.875Z,85.19
2023-01-29T19:19:00.228Z,84.70
2023-01-29T19:21:46.952Z,84.89
2023-01-29T19:24:36.198Z,84.63
2023-01-29T19:27:21.947Z,84.98
2023-01-29T19:30:11.504Z,85.44
2023-01-29T19:32:56.646Z,85.08
2023-01-29T19:35:44.906Z,84.92
2023-01-29T19:38:33.314Z,84.46
2023-01-29T19:41:20.999Z,84.12
2023-01-29T19:44:10.619Z,84.31
2023-01-29T19:46:58.333Z,84.33
2023-01-29T19:49:44.871Z,84.01
2023-01-29T19:52:50.133Z,83.95
2023-01-29T19:55:36.200Z,84.01
2023-01-29T19:58:21.424Z,83.36
2023-01-29T20:01:14.581Z,83.49
2023-01-29T20:04:01.712Z,83.83
2023-01-29T20:06:48.238Z,83.36
2023-01-29T20:09:37.303Z,83.17
2023-01-29T20:12:22.610Z,83.19
2023-01-29T20:15:08.821Z,83.02
2023-01-29T20:17:56.692Z,83.14
2023-01-29T20:20:50.212Z,83.91
2023-01-29T20:23:38.708Z,83.85
2023-01-29T20:26:25.596Z,83.20
2023-01-29T20:29:13.061Z,83.82
2023-01-29T20:32:02.891Z,83.78
2023-01-29T20:34:54.662Z,83.37
2023-01-29T20:37:41.539Z,84.05
2023-01-29T20:40:29.476Z,83.24
2023-01-29T20:43:14.337Z,83.47
2023-01-29T20:46:05.644Z,83.69
2023-01-29T20:48:53.164Z,83.39
2023-01-29T20:51:40.546Z,83.59
2023-01-29T20:54:25.804Z,83.13
2023-01-29T20:57:12.028Z,82.92
2023-01-29T20:59:57.228Z,83.69
2023-01-29T21:02:52.238Z,82.93
2023-01-29T21:05:37.724Z,82.95
2023-01-29T21:08:23.794Z,82.83
2023-01-29T21:11:09.784Z,83.48
2023-01-29T21:13:57.587Z,83.86
2023-01-29T21:16:45.944Z,83.21
2023-01-29T21:19:31.279Z,83.14
2023-01-29T21:22:16.839Z,83.29
2023-01-29T21:25:04.839Z,83.28
2023-01-29T21:27:54.044Z,83.38
2023-01-29T21:30:39.600Z,83.19
2023-01-29T21:33:25.018Z,83.29
2023-01-29T21:36:12.350Z,82.70
2023-01-29T21:38:59.833Z,83.22
2023-01-29T21:42:06.069Z,83.16
2023-01-29T21:44:50.983Z,82.54
2023-01-29T21:47:35.772Z,82.78
2023-01-29T21:50:20.879Z,82.87
2023-01-29T21:53:06.554Z,83.23
2023-01-29T21:55:51.678Z,82.73
2023-01-29T21:58:36.916Z,83.09
2023-01-29T22:01:37.730Z,82.94
2023-01-29T22:04:24.667Z,82.99
2023-01-29T22:07:13.069Z,83.28
2023-01-29T22:09:57.826Z,82.98
2023-01-29T22:12:44.417Z,83.18
2023-01-29T22:15:29.638Z,83.25
2023-01-29T22:18:14.507Z,83.60
2023-01-29T22:21:02.485Z,83.22
2023-01-29T22:23:48.364Z,82.73
2023-01-29T22:26:34.277Z,83.51
2023-01-29T22:29:19.740Z,82.59
2023-01-29T22:32:05.999Z,82.75
2023-01-29T22:34:51.492Z,83.18
2023-01-29T22:37:37.779Z,83.37
2023-01-29T22:40:23.022Z,82.61
2023-01-29T22:43:08.884Z,82.95
2023-01-29T22:45:53.870Z,83.29
2023-01-29T22:48:39.416Z,83.28
2023-01-29T22:51:24.555Z,82.82
2023-01-29T22:54:10.450Z,82.83
2023-01-29T22:56:55.731Z,82.59
2023-01-29T22:59:41.348Z,82.11
2023-01-29T23:02:26.428Z,82.82
2023-01-29T23:05:11.252Z,82.43
2023-01-29T23:07:56.395Z,83.18
2023-01-29T23:10:41.293Z,82.94
2023-01-29T23:13:26.216Z,82.99
2023-01-29T23:16:12.455Z,82.36
2023-01-29T23:18:57.457Z,82.88
2023-01-29T23:21:42.516Z,82.10
2023-01-29T23:24:27.446Z,82.53
2023-01-29T23:27:15.641Z,82.87
2023-01-29T23:30:03.190Z,82.49
2023-01-29T23:32:48.378Z,83.04
2023-01-29T23:35:33.513Z,83.07
2023-01-29T23:38:18.403Z,82.75
2023-01-29T23:41:03.300Z,82.67
2023-01-29T23:43:48.667Z,82.69
2023-01-29T23:46:33.562Z,82.97
2023-01-29T23:49:19.220Z,83.00
2023-01-29T23:52:04.235Z,83.43
2023-01-29T23:54:49.371Z,83.69
2023-01-29T23:57:34.193Z,83.34
